EW3995 Weather Reports


Display with metric or nautical units.
time (UTC)temp
F
wind
direction
speed
MPH
gust
MPH
rain 1hr
in
rain 24hr
in
rain mn
in
humidity
%
barometer
mb
20180718065056 80 173 5.0 6.0 0.00 0.00 0.00 38 1010.6
20180718063926 81 152 3.0 6.0 0.00 0.00 0.00 37 1011.6
20180718062926 82 158 4.0 6.0 0.00 0.00 0.00 36 1011.6
20180718061926 84 124 3.0 6.0 0.00 0.00 0.00 36 1011.6
20180718060926 83 122 4.0 8.0 0.00 0.00 0.00 37 1011.6
20180718055926 82 143 4.0 8.0 0.00 0.00 0.00 38 1011.6
20180718054926 82 166 2.0 7.0 0.00 0.00 0.00 38 1011.6
20180718053926 82 138 4.0 9.0 0.00 0.00 0.00 37 1011.6
20180718052926 82 130 3.0 8.0 0.00 0.00 0.00 39 1011.6
20180718051926 81 140 4.0 7.0 0.00 0.00 0.00 39 1011.6
20180718050756 81 125 2.0 4.0 0.00 0.00 0.00 41 1011.6
20180718045756 79 145 2.0 4.0 0.00 0.00 0.00 42 1010.6
20180718044756 78 115 1.0 4.0 0.00 0.00 0.00 43 1010.6
20180718043756 78 126 3.0 4.0 0.00 0.00 0.00 44 1011.6
20180718042756 77 115 2.0 4.0 0.00 0.00 0.00 44 1011.6
20180718041756 76 52 2.0 5.0 0.00 0.00 0.00 46 1011.6
20180718040756 75 68 2.0 6.0 0.00 0.00 0.00 47 1010.6
20180718035524 74 122 2.0 5.0 0.00 0.00 0.00 47 1010.6
20180718034354 74 141 2.0 5.0 0.00 0.00 0.00 47 1011.6
20180718033354 74 127 3.0 4.0 0.00 0.00 0.00 48 1011.6
20180718032354 74 140 3.0 4.0 0.00 0.00 0.00 49 1011.6
20180718031354 73 120 0.0 3.0 0.00 0.00 0.00 49 1011.6
20180718030354 73 77 1.0 3.0 0.00 0.00 0.00 50 1011.6
20180718025354 73 25 1.0 2.0 0.00 0.00 0.00 52 1010.6
20180718024354 73 135 1.0 3.0 0.00 0.00 0.00 52 1010.6
20180718023354 72 38 1.0 3.0 0.00 0.00 0.00 55 1010.6
20180718022354 71 112 0.0 2.0 0.00 0.00 0.00 60 1010.6
20180718021354 70 110 1.0 3.0 0.00 0.00 0.00 65 1010.6
20180718020354 69 34 1.0 3.0 0.00 0.00 0.00 69 1010.6
20180718015354 67 72 1.0 3.0 0.00 0.00 0.00 72 1010.6
20180718014354 66 55 1.0 3.0 0.00 0.00 0.00 76 1011.6
20180718013353 64 76 1.0 3.0 0.00 0.00 0.00 82 1011.6
20180718012354 62 53 2.0 4.0 0.00 0.00 0.00 87 1011.6
20180718011354 61 68 1.0 3.0 0.00 0.00 0.00 89 1011.6
20180718010354 60 20 3.0 4.0 0.00 0.00 0.00 91 1011.6
20180718005354 60 45 0.0 0.0 0.00 0.00 0.00 92 1011.6
20180718004353 60 45 0.0 0.0 0.00 0.00 0.00 93 1010.6
20180718003354 60 45 0.0 0.0 0.00 0.00 0.00 93 1010.6
20180718002353 59 45 0.0 2.0 0.00 0.00 0.00 94 1011.6
20180718001354 58 22 0.0 2.0 0.00 0.00 0.00 94 1012.7
20180718000354 58 45 0.0 0.0 0.00 0.00 0.00 94 1012.7
20180717235354 58 45 0.0 0.0 0.00 0.00 0.00 94 1011.6
20180717234354 58 45 0.0 2.0 0.00 0.00 0.00 94 1012.7
20180717233353 57 338 0.0 0.0 0.00 0.00 0.00 94 1012.7
20180717232353 57 338 0.0 0.0 0.00 0.00 0.00 94 1012.7
20180717231353 56 338 0.0 0.0 0.00 0.00 0.00 94 1011.6
20180717230354 56 338 0.0 0.0 0.00 0.00 0.00 93 1011.6
20180717225353 56 338 0.0 0.0 0.00 0.00 0.00 92 1011.6
20180717224354 56 338 0.0 0.0 0.00 0.00 0.00 92 1011.6
20180717223354 57 338 0.0 0.0 0.00 0.00 0.00 92 1011.6
20180717222353 57 338 0.0 0.0 0.00 0.00 0.00 92 1011.6
20180717221353 57 338 0.0 0.0 0.00 0.00 0.00 91 1011.6
20180717220353 57 338 0.0 0.0 0.00 0.00 0.00 91 1011.6
20180717215353 57 338 0.0 0.0 0.00 0.00 0.00 91 1011.6
20180717214353 57 338 0.0 0.0 0.00 0.00 0.00 91 1011.6
20180717213354 58 338 0.0 0.0 0.00 0.00 0.00 90 1011.6
20180717212354 58 338 0.0 0.0 0.00 0.00 0.00 90 1011.6
20180717211354 58 338 0.0 1.0 0.00 0.00 0.00 91 1011.6
20180717210354 59 338 0.0 2.0 0.00 0.00 0.00 91 1011.6
20180717205353 58 338 0.0 0.0 0.00 0.00 0.00 90 1011.6
20180717204355 58 338 0.0 0.0 0.00 0.00 0.00 89 1011.6
20180717203353 58 338 0.0 0.0 0.00 0.00 0.00 88 1011.6
20180717202354 58 338 0.0 0.0 0.00 0.00 0.00 88 1011.6
20180717201355 59 338 0.0 0.0 0.00 0.00 0.00 88 1011.6
20180717200354 60 338 0.0 0.0 0.00 0.00 0.00 87 1011.6
20180717195353 60 338 0.0 0.0 0.00 0.00 0.00 87 1012.7
20180717194353 60 135 0.0 0.0 0.00 0.00 0.00 88 1011.6
20180717193354 60 135 0.0 0.0 0.00 0.00 0.00 87 1011.6
20180717192353 60 135 0.0 0.0 0.00 0.00 0.00 87 1011.6
20180717191353 61 135 0.0 0.0 0.00 0.00 0.00 86 1011.6
20180717185353 61 135 0.0 0.0 0.00 0.00 0.00 84 1012.7
20180717184353 61 135 0.0 0.0 0.00 0.00 0.00 85 1011.6
20180717183353 61 135 0.0 0.0 0.00 0.00 0.00 83 1011.6
20180717182353 61 135 0.0 0.0 0.00 0.00 0.00 82 1011.6
20180717181354 61 135 0.0 0.0 0.00 0.00 0.00 81 1011.6
20180717180354 61 135 0.0 0.0 0.00 0.00 0.00 80 1011.6
20180717175353 61 135 0.0 0.0 0.00 0.00 0.00 79 1012.7
20180717174354 61 135 0.0 0.0 0.00 0.00 0.00 78 1011.6
20180717173354 62 135 0.0 0.0 0.00 0.00 0.00 76 1011.6
20180717172353 62 135 0.0 0.0 0.00 0.00 0.00 74 1011.6
20180717171354 63 135 0.0 0.0 0.00 0.00 0.00 73 1011.6
20180717170354 63 135 0.0 0.0 0.00 0.00 0.00 71 1011.6
20180717165354 64 135 0.0 0.0 0.00 0.00 0.00 69 1011.6
20180717164353 65 135 0.0 0.0 0.00 0.00 0.00 66 1011.6
20180717163353 66 135 0.0 0.0 0.00 0.00 0.00 64 1011.6
20180717162353 66 135 0.0 0.0 0.00 0.00 0.00 63 1011.6
20180717161354 67 135 0.0 0.0 0.00 0.00 0.00 61 1011.6
20180717160354 68 135 0.0 0.0 0.00 0.00 0.00 58 1011.6
20180717155353 69 135 0.0 0.0 0.00 0.00 0.00 56 1012.7
20180717154354 70 135 0.0 0.0 0.00 0.00 0.00 53 1011.6
20180717153353 71 135 0.0 0.0 0.00 0.00 0.00 53 1011.6
20180717152354 72 135 0.0 0.0 0.00 0.00 0.00 51 1011.6
20180717151353 72 135 0.0 0.0 0.00 0.00 0.00 50 1011.6
20180717150353 72 135 0.0 0.0 0.00 0.00 0.00 50 1011.6
20180717145354 72 135 0.0 0.0 0.00 0.00 0.00 51 1012.7
20180717144353 71 135 0.0 0.0 0.00 0.00 0.00 49 1011.6
20180717143353 71 135 0.0 0.0 0.00 0.00 0.00 46 1011.6
20180717142354 73 135 0.0 0.0 0.00 0.00 0.00 43 1011.6
20180717141353 74 135 0.0 0.0 0.00 0.00 0.00 39 1011.6
20180717140353 77 135 0.0 0.0 0.00 0.00 0.00 33 1011.6
20180717135353 79 135 0.0 2.0 0.00 0.00 0.00 30 1011.6
20180717134354 81 112 1.0 3.0 0.00 0.00 0.00 29 1011.6
20180717133353 82 130 2.0 3.0 0.00 0.00 0.00 29 1011.6
20180717132354 84 135 2.0 3.0 0.00 0.00 0.00 28 1012.7
20180717131353 85 115 1.0 3.0 0.00 0.00 0.00 29 1011.6
20180717130353 83 135 0.0 0.0 0.00 0.00 0.00 31 1011.6
20180717125353 84 135 0.0 0.0 0.00 0.00 0.00 30 1011.6
20180717124353 83 135 0.0 0.0 0.00 0.00 0.00 29 1011.6
20180717123354 87 135 0.0 3.0 0.00 0.00 0.00 26 1011.6
20180717122353 88 22 0.0 2.0 0.00 0.00 0.00 26 1011.6
20180717121353 86 22 0.0 0.0 0.00 0.00 0.00 27 1011.6
20180717120354 83 22 0.0 0.0 0.00 0.00 0.00 29 1011.6
20180717115353 82 22 0.0 1.0 0.00 0.00 0.00 27 1011.6
20180717114353 83 22 1.0 2.0 0.00 0.00 0.00 25 1011.6
20180717113353 86 135 0.0 3.0 0.00 0.00 0.00 23 1011.6
20180717112354 88 131 2.0 5.0 0.00 0.00 0.00 20 1011.6
20180717111353 90 180 2.0 4.0 0.00 0.00 0.00 20 1011.6
20180717110353 92 28 2.0 3.0 0.00 0.00 0.00 20 1011.6
20180717105353 92 127 3.0 5.0 0.00 0.00 0.00 21 1011.6
20180717104353 91 29 2.0 4.0 0.00 0.00 0.00 22 1011.6
20180717103353 91 29 3.0 6.0 0.00 0.00 0.00 21 1011.6
20180717102353 92 22 2.0 4.0 0.00 0.00 0.00 22 1011.6
20180717101354 92 45 2.0 4.0 0.00 0.00 0.00 22 1011.6
20180717100353 91 137 2.0 4.0 0.00 0.00 0.00 22 1011.6
20180717095354 91 205 2.0 4.0 0.00 0.00 0.00 22 1011.6
20180717094353 91 58 2.0 4.0 0.00 0.00 0.00 23 1011.6
20180717093353 89 57 3.0 5.0 0.00 0.00 0.00 24 1011.6
20180717092353 87 161 2.0 6.0 0.00 0.00 0.00 23 1011.6
20180717091353 91 137 4.0 8.0 0.00 0.00 0.00 22 1011.6
20180717090353 91 180 3.0 5.0 0.00 0.00 0.00 22 1011.6
20180717085353 90 164 2.0 4.0 0.00 0.00 0.00 22 1011.6
20180717084353 89 146 2.0 4.0 0.00 0.00 0.00 24 1011.6
20180717083223 87 270 2.0 6.0 0.00 0.00 0.00 25 1011.6
20180717082224 88 256 3.0 6.0 0.00 0.00 0.00 26 1011.6
20180717081223 87 235 2.0 6.0 0.00 0.00 0.00 26 1012.7
20180717080223 86 210 2.0 4.0 0.00 0.00 0.00 26 1012.7
20180717075223 89 248 3.0 5.0 0.00 0.00 0.00 25 1012.7
20180717074223 88 119 0.0 5.0 0.00 0.00 0.00 27 1012.7
20180717073223 86 199 1.0 4.0 0.00 0.00 0.00 27 1012.7
20180717072223 88 198 3.0 6.0 0.00 0.00 0.00 25 1012.7
20180717071223 89 128 3.0 4.0 0.00 0.00 0.00 27 1012.7
20180717070223 88 254 2.0 4.0 0.00 0.00 0.00 28 1012.7